createdAt,value
2023-05-16T00:00:07.259Z,19.30
2023-05-16T00:02:55.721Z,19.30
2023-05-16T00:05:24.100Z,19.10
2023-05-16T00:07:52.546Z,18.40
2023-05-16T00:10:21.238Z,20.50
2023-05-16T00:12:52.942Z,19.10
2023-05-16T00:15:23.619Z,18.10
2023-05-16T00:17:52.974Z,18.10
2023-05-16T00:20:24.014Z,17.80
2023-05-16T00:22:52.662Z,19.10
2023-05-16T00:25:21.913Z,18.60
2023-05-16T00:27:50.335Z,19.10
2023-05-16T00:30:19.000Z,17.20
2023-05-16T00:32:47.921Z,18.20
2023-05-16T00:35:16.979Z,18.40
2023-05-16T00:37:45.297Z,18.70
2023-05-16T00:40:14.525Z,17.70
2023-05-16T00:42:43.062Z,17.30
2023-05-16T00:45:12.041Z,18.70
2023-05-16T00:47:40.710Z,17.40
2023-05-16T00:50:09.722Z,18.60
2023-05-16T00:52:38.143Z,19.40
2023-05-16T00:55:07.049Z,17.90
2023-05-16T00:57:36.067Z,18.00
2023-05-16T01:00:06.016Z,18.70
2023-05-16T01:02:35.123Z,18.60
2023-05-16T01:05:06.019Z,18.80
2023-05-16T01:07:35.998Z,19.90
2023-05-16T01:10:05.568Z,19.40
2023-05-16T01:12:39.863Z,18.20
2023-05-16T01:15:10.161Z,19.00
2023-05-16T01:17:41.884Z,19.40
2023-05-16T01:20:22.898Z,19.50
2023-05-16T01:23:10.796Z,19.90
2023-05-16T01:25:45.812Z,19.80
2023-05-16T01:28:16.258Z,19.10
2023-05-16T01:30:45.246Z,18.00
2023-05-16T01:33:13.659Z,19.50
2023-05-16T01:36:01.719Z,17.80
2023-05-16T01:38:42.210Z,18.10
2023-05-16T01:41:41.349Z,17.80
2023-05-16T01:44:30.097Z,17.10
2023-05-16T01:47:00.402Z,18.20
2023-05-16T01:49:36.660Z,17.70
2023-05-16T01:52:10.207Z,17.10
2023-05-16T01:54:40.502Z,17.60
2023-05-16T01:57:09.550Z,16.20
2023-05-16T01:59:39.066Z,16.10
2023-05-16T02:02:07.513Z,18.00
2023-05-16T02:04:36.030Z,15.90
2023-05-16T02:07:04.615Z,15.20
2023-05-16T02:09:33.078Z,14.80
2023-05-16T02:12:02.617Z,15.20
2023-05-16T02:14:31.127Z,15.10
2023-05-16T02:16:59.543Z,13.40
2023-05-16T02:19:28.045Z,14.30
2023-05-16T02:21:57.109Z,13.50
2023-05-16T02:24:25.597Z,14.10
2023-05-16T02:26:54.004Z,13.50
2023-05-16T02:29:22.868Z,12.80
2023-05-16T02:31:51.383Z,13.10
2023-05-16T02:34:19.938Z,12.80
2023-05-16T02:36:48.398Z,13.30
2023-05-16T02:39:17.138Z,12.20
2023-05-16T02:41:45.977Z,12.50
2023-05-16T02:44:14.563Z,12.00
2023-05-16T02:46:43.091Z,12.60
2023-05-16T02:49:11.762Z,11.50
2023-05-16T02:51:40.062Z,11.30
2023-05-16T02:54:10.187Z,11.50
2023-05-16T02:56:38.606Z,10.20
2023-05-16T02:59:07.921Z,10.60
2023-05-16T03:01:36.811Z,10.00
2023-05-16T03:04:05.345Z,10.20
2023-05-16T03:06:33.774Z,9.60
2023-05-16T03:09:02.204Z,9.80
2023-05-16T03:11:30.659Z,10.20
2023-05-16T03:14:01.844Z,8.80
2023-05-16T03:16:30.877Z,10.20
2023-05-16T03:18:59.426Z,9.40
2023-05-16T03:21:28.512Z,10.40
2023-05-16T03:23:57.363Z,9.00
2023-05-16T03:26:26.322Z,9.30
2023-05-16T03:28:54.893Z,9.60
2023-05-16T03:31:23.367Z,9.70
2023-05-16T03:33:51.737Z,10.40
2023-05-16T03:36:22.043Z,9.00
2023-05-16T03:38:50.664Z,9.60
2023-05-16T03:41:19.384Z,10.30
2023-05-16T03:43:47.857Z,9.50
2023-05-16T03:46:16.545Z,9.70
2023-05-16T03:48:45.134Z,10.70
2023-05-16T03:51:13.546Z,10.00
2023-05-16T03:53:42.535Z,10.20
2023-05-16T03:56:11.399Z,9.80
2023-05-16T03:58:39.864Z,10.50
2023-05-16T04:01:08.296Z,9.10
2023-05-16T04:03:38.674Z,8.90
2023-05-16T04:06:07.578Z,9.70
2023-05-16T04:08:36.187Z,8.00
2023-05-16T04:11:05.036Z,9.10
2023-05-16T04:13:33.501Z,8.90
2023-05-16T04:16:02.520Z,8.60
2023-05-16T04:18:30.949Z,8.60
2023-05-16T04:20:59.650Z,8.50
2023-05-16T04:23:27.995Z,8.00
2023-05-16T04:25:57.427Z,9.10
2023-05-16T04:28:25.828Z,7.80
2023-05-16T04:30:54.772Z,8.90
2023-05-16T04:33:23.246Z,8.10
2023-05-16T04:35:53.443Z,7.90
2023-05-16T04:38:22.857Z,7.70
2023-05-16T04:40:52.164Z,7.80
2023-05-16T04:43:21.268Z,7.10
2023-05-16T04:45:49.780Z,7.30
2023-05-16T04:48:18.221Z,7.50
2023-05-16T04:50:46.544Z,7.90
2023-05-16T04:53:15.520Z,7.10
2023-05-16T04:55:43.899Z,7.90
2023-05-16T04:58:12.806Z,7.20
2023-05-16T05:00:41.725Z,7.60
2023-05-16T05:03:10.196Z,8.00
2023-05-16T05:05:38.851Z,7.70
2023-05-16T05:08:07.801Z,7.30
2023-05-16T05:10:36.836Z,8.00
2023-05-16T05:13:05.422Z,8.10
2023-05-16T05:15:34.354Z,8.40
2023-05-16T05:18:02.766Z,7.00
2023-05-16T05:20:31.363Z,7.10
2023-05-16T05:22:59.719Z,7.20
2023-05-16T05:25:29.027Z,7.30
2023-05-16T05:27:58.209Z,6.30
2023-05-16T05:30:26.873Z,5.80
2023-05-16T05:32:55.274Z,6.40
2023-05-16T05:35:23.784Z,7.00
2023-05-16T05:37:52.615Z,6.00
2023-05-16T05:40:21.416Z,6.30
2023-05-16T05:42:50.083Z,5.80
2023-05-16T05:45:18.770Z,6.20
2023-05-16T05:47:47.183Z,6.00
2023-05-16T05:50:16.636Z,5.40
2023-05-16T05:52:45.817Z,4.90
2023-05-16T05:55:14.248Z,5.10
2023-05-16T05:57:42.710Z,4.90
2023-05-16T06:00:11.834Z,4.80
2023-05-16T06:02:41.149Z,4.00
2023-05-16T06:05:10.192Z,4.20
2023-05-16T06:07:38.830Z,3.60
2023-05-16T06:10:09.010Z,3.80
2023-05-16T06:12:37.515Z,3.70
2023-05-16T06:15:06.270Z,4.20
2023-05-16T06:17:34.786Z,3.50
2023-05-16T06:20:03.366Z,3.20
2023-05-16T06:22:31.822Z,3.10
2023-05-16T06:25:00.782Z,3.20
2023-05-16T06:27:29.800Z,3.20
2023-05-16T06:29:58.174Z,3.20
2023-05-16T06:32:26.572Z,2.70
2023-05-16T06:34:54.926Z,2.70
2023-05-16T06:37:23.947Z,2.50
2023-05-16T06:39:53.392Z,2.70
2023-05-16T06:42:23.475Z,2.50
2023-05-16T06:44:52.003Z,2.60
2023-05-16T06:47:21.161Z,2.60
2023-05-16T06:49:49.789Z,2.50
2023-05-16T06:52:18.380Z,2.40
2023-05-16T06:54:46.849Z,2.60
2023-05-16T06:57:15.416Z,2.60
2023-05-16T06:59:44.682Z,2.60
2023-05-16T07:02:13.171Z,3.00
2023-05-16T07:04:41.743Z,2.80
2023-05-16T07:07:10.217Z,3.50
2023-05-16T07:09:39.488Z,3.40
2023-05-16T07:12:08.235Z,3.40
2023-05-16T07:14:37.167Z,4.60
2023-05-16T07:17:05.685Z,5.10
2023-05-16T07:19:34.096Z,4.90
2023-05-16T07:22:02.617Z,4.60
2023-05-16T07:24:31.309Z,5.20
2023-05-16T07:26:59.753Z,5.00
2023-05-16T07:32:21.929Z,5.20
2023-05-16T07:34:51.279Z,4.00
2023-05-16T07:37:20.828Z,3.60
2023-05-16T07:39:49.990Z,3.90
2023-05-16T07:42:18.498Z,3.40
2023-05-16T07:44:48.211Z,4.10
2023-05-16T07:47:16.758Z,3.90
2023-05-16T07:49:45.376Z,4.00
2023-05-16T07:52:14.316Z,4.60
2023-05-16T07:54:42.866Z,4.30
2023-05-16T07:57:11.899Z,3.90
2023-05-16T07:59:40.559Z,3.70
2023-05-16T08:02:09.529Z,3.60
2023-05-16T08:04:38.749Z,3.50
2023-05-16T08:07:08.099Z,3.50
2023-05-16T08:09:36.625Z,3.40
2023-05-16T08:12:05.486Z,3.60
2023-05-16T08:14:34.857Z,3.90
2023-05-16T08:17:04.116Z,3.90
2023-05-16T08:19:33.457Z,4.00
2023-05-16T08:22:02.339Z,3.50
2023-05-16T08:24:31.677Z,3.40
2023-05-16T08:27:00.894Z,3.30
2023-05-16T08:29:30.688Z,3.20
2023-05-16T08:32:00.058Z,3.50
2023-05-16T08:34:31.077Z,3.70
2023-05-16T08:37:00.040Z,3.20
2023-05-16T08:39:29.037Z,3.00
2023-05-16T08:41:59.232Z,2.80
2023-05-16T08:44:29.553Z,2.70
2023-05-16T08:47:04.012Z,2.80
2023-05-16T08:49:34.776Z,2.60
2023-05-16T08:52:07.400Z,3.30
2023-05-16T08:54:37.593Z,2.90
2023-05-16T08:57:06.942Z,3.10
2023-05-16T08:59:36.007Z,2.90
2023-05-16T09:02:05.798Z,2.80
2023-05-16T09:04:34.918Z,2.80
2023-05-16T09:07:03.841Z,2.90
2023-05-16T09:09:32.796Z,2.80
2023-05-16T09:12:01.671Z,2.80
2023-05-16T09:14:30.882Z,2.80
2023-05-16T09:17:04.547Z,2.70
2023-05-16T09:19:43.719Z,3.30
2023-05-16T09:22:13.690Z,2.60
2023-05-16T09:24:44.787Z,2.90
2023-05-16T09:27:14.919Z,2.90
2023-05-16T09:29:44.584Z,2.80
2023-05-16T09:32:14.743Z,2.90
2023-05-16T09:34:48.771Z,2.60
2023-05-16T09:37:17.559Z,2.90
2023-05-16T09:39:48.155Z,2.70
2023-05-16T09:42:17.499Z,3.10
2023-05-16T09:44:51.586Z,3.00
2023-05-16T09:47:20.986Z,3.00
2023-05-16T09:49:53.078Z,2.60
2023-05-16T09:52:21.642Z,3.40
2023-05-16T09:54:50.470Z,2.90
2023-05-16T09:57:27.456Z,2.50
2023-05-16T09:59:59.843Z,3.00
2023-05-16T10:02:28.590Z,3.20
2023-05-16T10:04:57.645Z,3.30
2023-05-16T10:07:27.008Z,3.00
2023-05-16T10:09:56.605Z,3.20
2023-05-16T10:12:29.914Z,3.50
2023-05-16T10:15:01.048Z,3.30
2023-05-16T10:17:32.752Z,3.30
2023-05-16T10:20:07.691Z,3.20
2023-05-16T10:22:37.117Z,3.70
2023-05-16T10:25:13.206Z,3.20
2023-05-16T10:27:42.681Z,3.00
2023-05-16T10:30:11.586Z,3.50
2023-05-16T10:32:42.685Z,3.30
2023-05-16T10:35:11.871Z,3.30
2023-05-16T10:37:41.050Z,3.20
2023-05-16T10:40:10.612Z,3.30
2023-05-16T10:42:39.573Z,3.30
2023-05-16T10:45:10.347Z,3.80
2023-05-16T10:47:38.967Z,3.60
2023-05-16T10:50:08.151Z,3.50
2023-05-16T10:52:36.919Z,3.50
2023-05-16T10:55:06.355Z,3.70
2023-05-16T10:57:37.031Z,3.40
2023-05-16T11:00:10.651Z,3.40
2023-05-16T11:02:42.277Z,3.40
2023-05-16T11:05:14.493Z,3.50
2023-05-16T11:07:43.240Z,3.60
2023-05-16T11:10:16.333Z,3.30
2023-05-16T11:12:46.338Z,3.40
2023-05-16T11:15:22.279Z,4.60
2023-05-16T11:17:51.504Z,3.70
2023-05-16T11:20:34.665Z,3.40
2023-05-16T11:23:22.146Z,3.80
2023-05-16T11:25:59.578Z,3.60
2023-05-16T11:28:28.780Z,3.60
2023-05-16T11:31:00.503Z,3.50
2023-05-16T11:33:31.416Z,3.40
2023-05-16T11:36:14.632Z,3.40
2023-05-16T11:38:44.851Z,4.00
2023-05-16T11:41:15.916Z,3.50
2023-05-16T11:43:45.537Z,3.60
2023-05-16T11:46:15.430Z,3.60
2023-05-16T11:48:46.466Z,3.70
2023-05-16T11:51:19.237Z,3.90
2023-05-16T11:53:50.263Z,4.90
2023-05-16T11:56:19.075Z,4.10
2023-05-16T11:58:48.071Z,4.20
2023-05-16T12:01:16.666Z,4.10
2023-05-16T12:03:45.877Z,4.70
2023-05-16T12:06:15.506Z,5.40
2023-05-16T12:08:50.459Z,5.40
2023-05-16T12:11:19.174Z,5.20
2023-05-16T12:13:48.329Z,5.20
2023-05-16T12:16:17.405Z,5.40
2023-05-16T12:18:46.421Z,5.50
2023-05-16T12:21:14.921Z,5.00
2023-05-16T12:23:44.099Z,4.80
2023-05-16T12:26:13.128Z,6.10
2023-05-16T12:28:44.783Z,5.70
2023-05-16T12:31:31.528Z,5.70
2023-05-16T12:34:01.028Z,6.30
2023-05-16T12:36:35.226Z,6.30
2023-05-16T12:39:04.397Z,7.50
2023-05-16T12:41:33.020Z,6.60
2023-05-16T12:44:29.854Z,6.90
2023-05-16T12:46:59.457Z,6.30
2023-05-16T12:49:28.019Z,6.50
2023-05-16T12:51:59.453Z,6.30
2023-05-16T12:54:28.076Z,6.20
2023-05-16T12:56:56.792Z,6.90
2023-05-16T12:59:25.872Z,6.20
2023-05-16T13:01:54.878Z,6.40
2023-05-16T13:04:24.531Z,6.20
2023-05-16T13:09:25.034Z,5.70
2023-05-16T13:11:54.032Z,5.60
2023-05-16T13:14:23.444Z,6.10
2023-05-16T13:16:52.560Z,5.50
2023-05-16T13:19:23.449Z,5.70
2023-05-16T13:21:52.038Z,6.20
2023-05-16T13:24:20.694Z,5.90
2023-05-16T13:26:49.687Z,5.80
2023-05-16T13:29:18.204Z,5.80
2023-05-16T13:31:46.815Z,5.80
2023-05-16T13:34:16.032Z,6.20
2023-05-16T13:36:53.932Z,6.10
2023-05-16T13:39:24.069Z,6.60
2023-05-16T13:41:53.511Z,6.10
2023-05-16T13:44:23.081Z,7.30
2023-05-16T13:46:51.717Z,7.00
2023-05-16T13:49:21.163Z,8.20
2023-05-16T13:51:49.779Z,8.50
2023-05-16T13:54:19.248Z,8.10
2023-05-16T13:56:48.075Z,8.20
2023-05-16T13:59:21.181Z,7.70
2023-05-16T14:02:01.555Z,7.60
2023-05-16T14:04:30.703Z,7.50
2023-05-16T14:06:59.117Z,7.50
2023-05-16T14:09:27.587Z,7.40
2023-05-16T14:11:56.227Z,6.90
2023-05-16T14:14:25.329Z,6.70
2023-05-16T14:16:53.981Z,7.80
2023-05-16T14:19:22.713Z,6.90
2023-05-16T14:21:52.097Z,7.80
2023-05-16T14:24:20.661Z,7.20
2023-05-16T14:26:49.218Z,7.60
2023-05-16T14:29:18.102Z,7.30
2023-05-16T14:31:47.631Z,6.70
2023-05-16T14:34:16.678Z,8.20
2023-05-16T14:36:45.340Z,9.60
2023-05-16T14:39:14.637Z,9.00
2023-05-16T14:41:44.066Z,10.50
2023-05-16T14:44:13.269Z,11.00
2023-05-16T14:46:42.114Z,10.70
2023-05-16T14:49:11.542Z,10.80
2023-05-16T14:51:40.127Z,11.60
2023-05-16T14:54:08.856Z,10.90
2023-05-16T14:56:37.679Z,11.50
2023-05-16T14:59:06.143Z,11.60
2023-05-16T15:01:34.776Z,11.10
2023-05-16T15:04:03.883Z,12.40
2023-05-16T15:06:32.464Z,12.60
2023-05-16T15:09:01.612Z,12.10
2023-05-16T15:11:30.143Z,12.00
2023-05-16T15:13:58.674Z,11.90
2023-05-16T15:16:27.143Z,11.90
2023-05-16T15:18:56.240Z,11.50
2023-05-16T15:21:25.322Z,10.90
2023-05-16T15:23:55.728Z,10.70
2023-05-16T15:26:25.065Z,11.10
2023-05-16T15:28:55.946Z,11.10
2023-05-16T15:31:24.590Z,10.70
2023-05-16T15:33:53.154Z,9.50
2023-05-16T15:36:22.162Z,9.00
2023-05-16T15:38:51.584Z,9.10
2023-05-16T15:41:37.200Z,8.60
2023-05-16T15:44:10.471Z,8.70
2023-05-16T15:46:39.496Z,7.40
2023-05-16T15:49:09.972Z,7.90
2023-05-16T15:51:38.407Z,8.50
2023-05-16T15:54:08.046Z,11.80
2023-05-16T15:56:36.589Z,8.20
2023-05-16T15:59:05.692Z,8.70
2023-05-16T16:01:34.268Z,8.20
2023-05-16T16:04:03.383Z,6.50
2023-05-16T16:06:32.052Z,6.60
2023-05-16T16:09:01.079Z,6.70
2023-05-16T16:11:29.490Z,6.30
2023-05-16T16:13:58.192Z,7.10
2023-05-16T16:16:26.770Z,7.50
2023-05-16T16:18:55.780Z,7.20
2023-05-16T16:21:24.798Z,7.70
2023-05-16T16:23:53.457Z,7.90
2023-05-16T16:26:22.867Z,7.30
2023-05-16T16:28:51.464Z,8.30
2023-05-16T16:31:20.689Z,7.90
2023-05-16T16:33:50.211Z,8.90
2023-05-16T16:36:18.731Z,7.50
2023-05-16T16:38:47.502Z,8.80
2023-05-16T16:41:17.010Z,10.30
2023-05-16T16:43:45.626Z,10.40
2023-05-16T16:46:14.460Z,11.10
2023-05-16T16:48:42.932Z,11.50
2023-05-16T16:51:11.888Z,11.20
2023-05-16T16:53:41.350Z,12.10
2023-05-16T16:56:09.798Z,12.50
2023-05-16T16:58:38.233Z,12.70
2023-05-16T17:01:07.866Z,13.00
2023-05-16T17:03:36.550Z,13.40
2023-05-16T17:06:05.543Z,13.20
2023-05-16T17:08:33.958Z,14.70
2023-05-16T17:11:05.606Z,12.30
2023-05-16T17:13:37.967Z,14.40
2023-05-16T17:16:07.737Z,14.30
2023-05-16T17:18:37.358Z,16.10
2023-05-16T17:21:07.179Z,15.30
2023-05-16T17:23:36.204Z,14.90
2023-05-16T17:26:05.877Z,16.10
2023-05-16T17:28:34.380Z,15.00
2023-05-16T17:31:04.250Z,15.50
2023-05-16T17:33:33.521Z,16.20
2023-05-16T17:36:02.109Z,16.00
2023-05-16T17:38:31.700Z,17.00
2023-05-16T17:41:01.834Z,13.70
2023-05-16T17:43:31.445Z,15.70
2023-05-16T17:46:00.841Z,15.30
2023-05-16T17:48:29.347Z,14.20
2023-05-16T17:50:58.444Z,16.70
2023-05-16T17:53:27.141Z,17.30
2023-05-16T17:55:57.649Z,15.00
2023-05-16T17:58:27.467Z,15.80
2023-05-16T18:00:56.986Z,15.60
2023-05-16T18:03:25.990Z,13.40
2023-05-16T18:05:54.550Z,13.50
2023-05-16T18:08:23.748Z,14.20
2023-05-16T18:10:53.283Z,11.10
2023-05-16T18:13:24.442Z,11.40
2023-05-16T18:15:53.254Z,10.50
2023-05-16T18:18:23.562Z,11.30
2023-05-16T18:20:53.498Z,11.90
2023-05-16T18:23:22.445Z,11.00
2023-05-16T18:25:55.128Z,10.30
2023-05-16T18:28:24.527Z,10.20
2023-05-16T18:30:53.956Z,9.60
2023-05-16T18:33:23.406Z,9.50
2023-05-16T18:35:52.869Z,9.40
2023-05-16T18:38:32.135Z,10.30
2023-05-16T18:41:02.390Z,7.40
2023-05-16T18:43:31.359Z,9.60
2023-05-16T18:46:00.355Z,10.20
2023-05-16T18:48:29.321Z,9.10
2023-05-16T18:51:00.343Z,9.60
2023-05-16T18:53:29.852Z,10.40
2023-05-16T18:55:59.043Z,10.10
2023-05-16T18:58:29.445Z,10.00
2023-05-16T19:00:58.546Z,9.70
2023-05-16T19:03:27.824Z,9.50
2023-05-16T19:05:59.089Z,8.60
2023-05-16T19:08:36.726Z,10.10
2023-05-16T19:11:16.966Z,8.30
2023-05-16T19:13:46.015Z,9.10
2023-05-16T19:16:17.156Z,7.90
2023-05-16T19:18:46.087Z,9.40
2023-05-16T19:21:16.736Z,9.00
2023-05-16T19:23:47.140Z,9.90
2023-05-16T19:26:16.338Z,8.90
2023-05-16T19:28:45.657Z,9.80
2023-05-16T19:31:18.746Z,8.60
2023-05-16T19:33:50.786Z,9.50
2023-05-16T19:36:19.532Z,9.50
2023-05-16T19:38:48.986Z,8.80
2023-05-16T19:41:17.605Z,9.80
2023-05-16T19:43:46.399Z,9.30
2023-05-16T19:46:15.146Z,9.60
2023-05-16T19:48:43.769Z,9.40
2023-05-16T19:51:12.624Z,9.30
2023-05-16T19:53:41.444Z,8.70
2023-05-16T19:56:10.111Z,9.10
2023-05-16T19:58:38.586Z,9.40
2023-05-16T20:01:07.898Z,8.90
2023-05-16T20:03:36.750Z,9.00
2023-05-16T20:06:05.547Z,8.70
2023-05-16T20:08:33.967Z,8.90
2023-05-16T20:11:02.532Z,9.30
2023-05-16T20:13:31.219Z,9.00
2023-05-16T20:16:00.080Z,7.30
2023-05-16T20:18:28.847Z,8.00
2023-05-16T20:20:58.843Z,8.10
2023-05-16T20:23:27.612Z,7.90
2023-05-16T20:25:57.057Z,6.80
2023-05-16T20:28:26.047Z,7.50
2023-05-16T20:30:54.622Z,6.90
2023-05-16T20:33:23.512Z,6.70
2023-05-16T20:35:52.181Z,8.30
2023-05-16T20:38:21.009Z,7.70
2023-05-16T20:40:49.659Z,6.40
2023-05-16T20:43:18.723Z,6.60
2023-05-16T20:45:47.336Z,6.10
2023-05-16T20:48:16.386Z,6.50
2023-05-16T20:50:47.198Z,6.80
2023-05-16T20:53:15.783Z,6.70
2023-05-16T20:55:44.246Z,6.20
2023-05-16T20:58:12.711Z,6.60
2023-05-16T21:00:41.377Z,6.90
2023-05-16T21:03:12.820Z,6.40
2023-05-16T21:05:41.543Z,6.00
2023-05-16T21:08:10.261Z,6.50
2023-05-16T21:10:39.355Z,6.90
2023-05-16T21:13:08.561Z,6.70
2023-05-16T21:15:39.790Z,6.20
2023-05-16T21:18:08.831Z,7.10
2023-05-16T21:20:37.522Z,6.60
2023-05-16T21:23:06.174Z,6.70
2023-05-16T21:25:34.603Z,6.30
2023-05-16T21:28:03.883Z,7.40
2023-05-16T21:30:32.928Z,6.10
2023-05-16T21:33:02.275Z,6.70
2023-05-16T21:35:31.505Z,6.70
2023-05-16T21:38:00.088Z,7.30
2023-05-16T21:40:29.236Z,6.10
2023-05-16T21:42:57.887Z,6.40
2023-05-16T21:45:27.050Z,8.00
2023-05-16T21:47:56.262Z,7.40
2023-05-16T21:50:24.845Z,7.70
2023-05-16T21:52:53.819Z,7.50
2023-05-16T21:55:22.256Z,7.90
2023-05-16T21:57:50.825Z,8.90
2023-05-16T22:00:19.521Z,8.90
2023-05-16T22:02:49.168Z,10.50
2023-05-16T22:05:19.899Z,9.50
2023-05-16T22:07:48.496Z,10.00
2023-05-16T22:10:17.441Z,10.00
2023-05-16T22:12:48.782Z,9.90
2023-05-16T22:15:17.718Z,11.20
2023-05-16T22:17:48.484Z,11.40
2023-05-16T22:20:17.528Z,11.90
2023-05-16T22:22:46.632Z,10.60
2023-05-16T22:25:15.942Z,10.50
2023-05-16T22:27:44.347Z,11.20
2023-05-16T22:30:13.392Z,10.60
2023-05-16T22:32:41.939Z,10.70
2023-05-16T22:35:11.125Z,10.00
2023-05-16T22:37:41.737Z,10.60
2023-05-16T22:40:11.453Z,11.00
2023-05-16T22:42:40.834Z,11.00
2023-05-16T22:45:10.290Z,9.70
2023-05-16T22:47:38.862Z,10.60
2023-05-16T22:50:08.011Z,10.30
2023-05-16T22:52:41.404Z,10.20
2023-05-16T22:55:11.165Z,10.30
2023-05-16T22:57:40.114Z,10.30
2023-05-16T23:00:09.493Z,10.90
2023-05-16T23:02:38.017Z,10.90
2023-05-16T23:05:07.087Z,12.70
2023-05-16T23:07:35.838Z,10.50
2023-05-16T23:10:04.654Z,11.30
2023-05-16T23:12:33.675Z,11.90
2023-05-16T23:15:02.008Z,12.00
2023-05-16T23:17:31.038Z,12.20
2023-05-16T23:19:59.682Z,12.80
2023-05-16T23:22:28.250Z,12.80
2023-05-16T23:24:56.923Z,14.00
2023-05-16T23:27:25.389Z,13.70
2023-05-16T23:29:54.400Z,14.00
2023-05-16T23:32:22.966Z,13.60
2023-05-16T23:34:51.621Z,13.70
2023-05-16T23:37:20.006Z,13.50
2023-05-16T23:39:48.577Z,12.70
2023-05-16T23:42:17.451Z,14.20
2023-05-16T23:44:46.617Z,13.10
2023-05-16T23:47:15.606Z,13.00
2023-05-16T23:49:44.671Z,13.70
2023-05-16T23:52:13.927Z,13.20
2023-05-16T23:54:42.282Z,13.00
2023-05-16T23:57:11.080Z,12.50
2023-05-16T23:59:40.263Z,13.30
